Low Moor, Virginia
Current Conditions -  °F | °C
As of 12:35 AM on Wednesday 26 Nov 2014 (Local Time) from KHSP Reporting Station
Overcast Overcast  
Wind Chill: 37°   Ceiling: 10000
Heat Index: 40°   Visibility: 10mi
Dew Point: 18°   Wind: 5mph
Humidity: 41%   Direction: 80°E
Pressure: 30.03"   Gusts: NA
Location:  37.79°N, 79.88°W
Report Text: KHSP 260535Z AUTO 08004KT 10SM OVC100 05/M08 A3003 RMK AO2 T00451077
Loading
Personal Weather Stations






























Interactive Weather Map New forecast layout! Learn more

10-Day Weather Forecast

Advertisements
Track Severe Weather on mobile